ednb.de Segler
Luftsportverein Zellertal e.V.   
am Flugplatz Arnbruck (EDNB)     

Aktuelles Metar (minütlich - Station EDNB):

METAR EDNB 170231Z 15000G01KT //// ////// 13/12 Q1017=

AKTUELLES WETTER

Großwetterlage

Wetterkarte



Messwerte Station Wettzell

Geodätisches Observatorium Wettzell



Wind





Satellitenbild





Regenradar





Blitzkarte





Bayerwaldwebcams


VORHERSAGEN

Vorhersagekarten für Profis

wetter3.de bietet verschiedene Vorhersagekarten verschiedener Wettermodelle



Segelflugwetterbericht

Zu finden hier (direkte Verlinkung verboten): VFR Wetter



dreitagewetter.de

Drei Tage Vorhersage für Arnbruck



Vorhersage-Meteogramm (ECMWF+ICON)

profiwetter.ch



Global-Modell (GFS)






Station Großer Arber





Station Stadt Regen





Weitere Wetterlinks

Regional Atmospheric Soaring Prediction

Meteo-Parapente


Luftsportverein Zellertal e.V.

Max-Ruderer-Str. 1
93471 Arnbruck
Kontakt:

Telefon: 09945/504
E-Mail:  info@ednb.de
Social media:

Facebook
Youtube
Impressum
Datenschutz

© 2019 LSV Zellertal